Terminal Aerodrome Forecast
Issued by NWS

Current Version | Previous Version | Text Only | Print | Product List | Glossary On
Versions: 1 2 3 4 5 6 7 8 9 10 11 12 13
000
FTUS44 KLIX 021740
TAFGPT
TAF
KGPT 021740Z 0218/0318 05005KT P6SM SKC
     FM030300 22006KT P6SM FEW250
     FM031000 00000KT P6SM FEW250=

USA.gov is the U.S. government's official web portal to all federal, state and local government web resources and services.